Friday, May 25, 2018, 8:43 AM EDT
Back to Local

K1V4, St Johnsbury Fairbanks

Location: Saint Johnsbury, VT, United States Lat: 44.417
Local Time: 8:43 AM EDT (12:43 GMT) Lon: -72.017
Time Zone: US/Eastern Elev: 695 ft

Show me the last for .
Show Coded

Time T Td Feel RH Dir Speed Gust Alt SLP Vis Weather Sky Remarks
2018-05-25 07:54 52 44 - 74 - - - 29.85 29.84 0 6-hr Min Temp (8am): 43.0°F
6-hr Max Temp (8am): 52.0°F
2018-05-25 06:54 47 42 - 83 - - - 29.88 29.86 0 None
2018-05-25 05:54 43 42 - 96 - - - 29.88 29.87 0 None
2018-05-25 04:54 43 42 - 96 - - - 29.88 29.87 0 None
2018-05-25 03:54 44 42 - 92 - - - 29.89 29.88 0 None
2018-05-25 02:54 45 43 - 92 - - - 29.90 29.89 0 None
2018-05-25 01:54 46 44 - 92 - - - 29.92 29.90 0 6-hr Min Temp (2am): 46.0°F
6-hr Max Temp (2am): 64.0°F
2018-05-25 00:54 47 43 - 86 - - - 29.94 29.93 0 24-hr Min Temp (1am): 41.0°F
24-hr Max Temp (1am): 71.1°F
2018-05-24 23:54 49 44 - 83 - - - 29.96 29.96 0 None
2018-05-24 22:54 51 44 - 76 - - - 29.98 29.97 0 None
2018-05-24 21:54 54 44 - 69 - - - 30.00 29.99 0 None
2018-05-24 20:54 58 44 - 59 - - - 29.99 29.98 0 None
2018-05-24 19:54 64 40 - 41 - - - 29.99 29.98 0 6-hr Min Temp (8pm): 64.0°F
6-hr Max Temp (8pm): 71.1°F
2018-05-24 18:54 70 33 - 25 - - - 30.00 29.99 0 None
2018-05-24 17:54 70 33 - 25 - - - 30.01 30.00 0 None
2018-05-24 16:54 70 32 - 24 - - - 30.02 30.02 0 None
2018-05-24 15:54 70 33 - 25 - - - 30.04 30.03 0 None
2018-05-24 14:54 69 33 - 26 - - - 30.05 30.04 0 None
2018-05-24 13:54 67 30 - 25 - - - 30.06 30.05 0 6-hr Min Temp (2pm): 46.9°F
6-hr Max Temp (2pm): 68.0°F
2018-05-24 12:54 66 30 - 25 - - - 30.09 30.09 0 None
2018-05-24 11:54 64 26 - 23 - - - 30.11 30.10 0 None
2018-05-24 10:54 62 28 - 27 - - - 30.12 30.11 0 None
2018-05-24 09:54 58 31 - 35 - - - 30.12 30.11 0 None
2018-05-24 08:54 54 41 - 61 - - - 30.12 30.11 0 None

Support USWX by starting your Amazon purchase here.